Ana Sayfa
METAR-TAF:

METAR-TAF

Havaalanları :

Şirak Havalimanı

Gümrü, Ermenistan

Enlem: 40-45-01N, Boylam: 043-51-33E, yükseklik: 1524 m

Güncel hava durumu gözlemi

Rapor saat 00:30 UTC de 33 dakika önce yapıldı.
Rüzgar doğu/kuzeydoğudan 21 kt
Sıcaklık 20°C
Nem 49%
Basınç 1013 hPa
Görüş mesafesi 10 km veya daha fazla

METAR: UDSG 180030Z 06021KT 9999 NSC 20/09 Q1013 R02/CLRD70 NOSIG

Saat: 05:03 (01:03 UTC)

Tahmin

Rapor saat 23:01 UTC de 2 saat ve 2 dakika önce yapıldı.
Ayın 18'si saat 00 UTC'den ayın 18'si saat 24 UTC'ye kadar geçerli Tahmin
Rüzgar kuzey/kuzeydoğudan 12 kt
Görüş mesafesi 10 km veya daha fazla
4000 ft yükseklikte parçalı bulutlu
Geçici
ayın 18'si saat 00 UTC'den ayın 18'si saat 12 UTC'ye kadar
Rüzgar doğudan 24 kt ve 34 kt'a kadar ani rüzgarlar

TAF: UDSG 172301Z 1800/1824 02012KT 9999 SCT040 TEMPO 1800/1812 08024G34KT

4.000'den fazla havaalanı için hava durumu gözlemleri ve tahminleri (METAR ve TAF raporları).

Kullanılabilir istasyonlar harita üzerinde sarı ve kırmızı noktalarla gösterilir.

İstasyonun adını görmek için fareyi noktanın üzerinde gezdirin.

Sonrasında hava gözlem ve tahminlerini görmek için tıklayın.

Haritayı değiştirmek için: yaklaştırmak için siyah artı işaretli yeşil düğmeye ve uzaklaştırmak için de eksi işaretli düğmeye hızla tıklayın; bitişik haritalar için yeşil okları kullanın.


METAR-TAF: